Bucks Harbor, Maine
Current Conditions -  °F | °C
As of 3:15 PM on Thursday 18 Dec 2014 (Local Time) from KBHB Reporting Station
Overcast Overcast  
Wind Chill: -3°   Ceiling: 1500
Heat Index:   Visibility: 3mi
Dew Point:   Wind: 8mph
Humidity: 93%   Direction: 310°NW
Pressure: 29.62"   Gusts: 17mph
Location:  44.6541°N, 67.405°W
Report Text: KBHB 182015Z AUTO 31007G15KT 270V340 3SM SCT010 BKN015 OVC028 01/00 A2962 RMK AO1
Loading
Personal Weather Stations






























Interactive Weather Map New forecast layout! Learn more

10-Day Weather Forecast

Advertisements
Track Severe Weather on mobile